sensor_id;sensor_type;location;lat;lon;timestamp;P1;durP1;ratioP1;P2;durP2;ratioP2
56413;SDS011;42318;48.452;19.526;2022-10-22T00:07:20;3.03;;;1.90;;
56413;SDS011;42318;48.452;19.526;2022-10-22T00:14:50;3.40;;;1.80;;
56413;SDS011;42318;48.452;19.526;2022-10-22T00:22:21;2.38;;;1.65;;
56413;SDS011;42318;48.452;19.526;2022-10-22T00:29:52;2.33;;;1.50;;
56413;SDS011;42318;48.452;19.526;2022-10-22T00:37:23;2.70;;;1.70;;
56413;SDS011;42318;48.452;19.526;2022-10-22T00:44:59;2.28;;;1.48;;
56413;SDS011;42318;48.452;19.526;2022-10-22T00:52:43;2.60;;;1.85;;
56413;SDS011;42318;48.452;19.526;2022-10-22T01:00:14;4.25;;;1.85;;
56413;SDS011;42318;48.452;19.526;2022-10-22T01:07:47;2.70;;;1.60;;
56413;SDS011;42318;48.452;19.526;2022-10-22T01:15:27;1.95;;;1.48;;
56413;SDS011;42318;48.452;19.526;2022-10-22T01:30:39;2.28;;;1.77;;
56413;SDS011;42318;48.452;19.526;2022-10-22T01:38:15;1.92;;;1.50;;
56413;SDS011;42318;48.452;19.526;2022-10-22T01:45:53;2.28;;;1.40;;
56413;SDS011;42318;48.452;19.526;2022-10-22T01:53:30;1.83;;;1.23;;
56413;SDS011;42318;48.452;19.526;2022-10-22T02:01:17;2.55;;;1.73;;
56413;SDS011;42318;48.452;19.526;2022-10-22T02:08:55;2.30;;;1.60;;
56413;SDS011;42318;48.452;19.526;2022-10-22T02:16:30;1.80;;;1.60;;
56413;SDS011;42318;48.452;19.526;2022-10-22T02:24:04;2.60;;;1.67;;
56413;SDS011;42318;48.452;19.526;2022-10-22T02:31:36;3.00;;;1.77;;
56413;SDS011;42318;48.452;19.526;2022-10-22T02:39:09;2.78;;;1.60;;
56413;SDS011;42318;48.452;19.526;2022-10-22T02:46:42;2.30;;;1.60;;
56413;SDS011;42318;48.452;19.526;2022-10-22T02:54:13;2.95;;;1.70;;
56413;SDS011;42318;48.452;19.526;2022-10-22T03:01:44;2.95;;;1.80;;
56413;SDS011;42318;48.452;19.526;2022-10-22T03:09:14;2.42;;;1.80;;
56413;SDS011;42318;48.452;19.526;2022-10-22T03:16:46;2.88;;;1.80;;
56413;SDS011;42318;48.452;19.526;2022-10-22T03:24:18;2.17;;;1.50;;
56413;SDS011;42318;48.452;19.526;2022-10-22T03:31:51;2.28;;;1.50;;
56413;SDS011;42318;48.452;19.526;2022-10-22T03:39:23;1.83;;;1.37;;
56413;SDS011;42318;48.452;19.526;2022-10-22T03:46:54;1.50;;;1.20;;
56413;SDS011;42318;48.452;19.526;2022-10-22T03:54:25;2.33;;;1.65;;
56413;SDS011;42318;48.452;19.526;2022-10-22T04:01:55;2.08;;;1.05;;
56413;SDS011;42318;48.452;19.526;2022-10-22T04:09:26;2.00;;;1.27;;
56413;SDS011;42318;48.452;19.526;2022-10-22T04:16:57;2.35;;;1.42;;
56413;SDS011;42318;48.452;19.526;2022-10-22T04:24:28;1.92;;;1.20;;
56413;SDS011;42318;48.452;19.526;2022-10-22T04:32:00;2.97;;;1.67;;
56413;SDS011;42318;48.452;19.526;2022-10-22T04:39:31;1.70;;;1.30;;
56413;SDS011;42318;48.452;19.526;2022-10-22T04:47:02;1.25;;;1.15;;
56413;SDS011;42318;48.452;19.526;2022-10-22T04:54:32;2.65;;;1.40;;
56413;SDS011;42318;48.452;19.526;2022-10-22T05:02:03;2.50;;;1.58;;
56413;SDS011;42318;48.452;19.526;2022-10-22T05:09:34;2.53;;;1.25;;
56413;SDS011;42318;48.452;19.526;2022-10-22T05:17:04;3.92;;;1.80;;
56413;SDS011;42318;48.452;19.526;2022-10-22T05:24:35;2.05;;;1.50;;
56413;SDS011;42318;48.452;19.526;2022-10-22T05:32:06;1.95;;;1.35;;
56413;SDS011;42318;48.452;19.526;2022-10-22T05:39:37;2.10;;;1.50;;
56413;SDS011;42318;48.452;19.526;2022-10-22T05:47:10;2.33;;;1.48;;
56413;SDS011;42318;48.452;19.526;2022-10-22T05:54:40;2.70;;;1.20;;
56413;SDS011;42318;48.452;19.526;2022-10-22T06:02:11;2.80;;;1.40;;
56413;SDS011;42318;48.452;19.526;2022-10-22T06:09:42;1.90;;;1.45;;
56413;SDS011;42318;48.452;19.526;2022-10-22T06:17:12;2.20;;;1.48;;
56413;SDS011;42318;48.452;19.526;2022-10-22T06:24:43;2.38;;;1.20;;
56413;SDS011;42318;48.452;19.526;2022-10-22T06:32:14;2.20;;;1.50;;
56413;SDS011;42318;48.452;19.526;2022-10-22T06:39:44;2.63;;;1.45;;
56413;SDS011;42318;48.452;19.526;2022-10-22T06:47:15;2.45;;;1.67;;
56413;SDS011;42318;48.452;19.526;2022-10-22T06:54:46;2.53;;;1.55;;
56413;SDS011;42318;48.452;19.526;2022-10-22T07:02:16;2.45;;;1.20;;
56413;SDS011;42318;48.452;19.526;2022-10-22T07:09:47;2.00;;;1.30;;
56413;SDS011;42318;48.452;19.526;2022-10-22T07:17:18;2.65;;;1.60;;
56413;SDS011;42318;48.452;19.526;2022-10-22T07:24:49;2.80;;;2.00;;
56413;SDS011;42318;48.452;19.526;2022-10-22T07:32:19;2.47;;;1.50;;
56413;SDS011;42318;48.452;19.526;2022-10-22T07:39:50;2.72;;;1.67;;
56413;SDS011;42318;48.452;19.526;2022-10-22T07:47:21;2.40;;;1.50;;
56413;SDS011;42318;48.452;19.526;2022-10-22T07:54:51;3.05;;;2.00;;
56413;SDS011;42318;48.452;19.526;2022-10-22T08:02:22;2.60;;;1.90;;
56413;SDS011;42318;48.452;19.526;2022-10-22T08:09:53;2.97;;;1.35;;
56413;SDS011;42318;48.452;19.526;2022-10-22T08:17:24;3.20;;;1.77;;
56413;SDS011;42318;48.452;19.526;2022-10-22T08:24:55;2.83;;;1.95;;
56413;SDS011;42318;48.452;19.526;2022-10-22T08:32:25;1.63;;;1.33;;
56413;SDS011;42318;48.452;19.526;2022-10-22T08:39:56;2.33;;;1.67;;
56413;SDS011;42318;48.452;19.526;2022-10-22T08:55:19;2.08;;;1.77;;
56413;SDS011;42318;48.452;19.526;2022-10-22T09:10:50;2.22;;;1.50;;
56413;SDS011;42318;48.452;19.526;2022-10-22T09:18:32;2.50;;;1.58;;
56413;SDS011;42318;48.452;19.526;2022-10-22T09:26:13;2.47;;;1.53;;
56413;SDS011;42318;48.452;19.526;2022-10-22T09:33:50;2.83;;;1.70;;
56413;SDS011;42318;48.452;19.526;2022-10-22T09:41:25;2.22;;;1.65;;
56413;SDS011;42318;48.452;19.526;2022-10-22T09:49:04;2.55;;;1.83;;
56413;SDS011;42318;48.452;19.526;2022-10-22T09:56:40;2.28;;;1.65;;
56413;SDS011;42318;48.452;19.526;2022-10-22T10:04:13;2.72;;;1.77;;
56413;SDS011;42318;48.452;19.526;2022-10-22T10:27:37;2.72;;;1.60;;
56413;SDS011;42318;48.452;19.526;2022-10-22T11:06:48;3.07;;;1.80;;
56413;SDS011;42318;48.452;19.526;2022-10-22T11:22:22;2.35;;;1.60;;
56413;SDS011;42318;48.452;19.526;2022-10-22T11:29:58;2.47;;;1.50;;
56413;SDS011;42318;48.452;19.526;2022-10-22T11:37:34;2.60;;;1.50;;
56413;SDS011;42318;48.452;19.526;2022-10-22T11:52:49;2.10;;;1.52;;
56413;SDS011;42318;48.452;19.526;2022-10-22T12:08:20;2.85;;;1.65;;
56413;SDS011;42318;48.452;19.526;2022-10-22T12:15:55;2.55;;;1.77;;
56413;SDS011;42318;48.452;19.526;2022-10-22T12:23:29;1.58;;;1.20;;
56413;SDS011;42318;48.452;19.526;2022-10-22T12:31:03;2.13;;;1.50;;
56413;SDS011;42318;48.452;19.526;2022-10-22T12:38:35;2.42;;;1.30;;
56413;SDS011;42318;48.452;19.526;2022-10-22T12:46:13;2.25;;;1.58;;
56413;SDS011;42318;48.452;19.526;2022-10-22T12:53:49;3.03;;;1.73;;
56413;SDS011;42318;48.452;19.526;2022-10-22T13:01:24;2.72;;;1.63;;
56413;SDS011;42318;48.452;19.526;2022-10-22T13:17:10;2.03;;;1.60;;
56413;SDS011;42318;48.452;19.526;2022-10-22T13:32:30;1.98;;;1.40;;
56413;SDS011;42318;48.452;19.526;2022-10-22T13:40:09;2.17;;;1.53;;
56413;SDS011;42318;48.452;19.526;2022-10-22T13:47:41;2.65;;;1.88;;
56413;SDS011;42318;48.452;19.526;2022-10-22T13:55:22;3.13;;;2.15;;
56413;SDS011;42318;48.452;19.526;2022-10-22T14:02:57;2.55;;;1.73;;
56413;SDS011;42318;48.452;19.526;2022-10-22T14:10:29;2.83;;;1.48;;
56413;SDS011;42318;48.452;19.526;2022-10-22T14:17:59;2.08;;;1.50;;
56413;SDS011;42318;48.452;19.526;2022-10-22T14:25:30;2.40;;;1.73;;
56413;SDS011;42318;48.452;19.526;2022-10-22T14:33:01;2.55;;;1.67;;
56413;SDS011;42318;48.452;19.526;2022-10-22T14:40:32;2.95;;;1.60;;
56413;SDS011;42318;48.452;19.526;2022-10-22T14:48:03;2.92;;;1.77;;
56413;SDS011;42318;48.452;19.526;2022-10-22T14:55:33;3.67;;;1.90;;
56413;SDS011;42318;48.452;19.526;2022-10-22T15:03:04;2.67;;;1.80;;
56413;SDS011;42318;48.452;19.526;2022-10-22T15:10:35;2.80;;;1.80;;
56413;SDS011;42318;48.452;19.526;2022-10-22T15:18:06;3.72;;;1.85;;
56413;SDS011;42318;48.452;19.526;2022-10-22T15:25:37;3.08;;;1.90;;
56413;SDS011;42318;48.452;19.526;2022-10-22T15:33:07;3.17;;;1.70;;
56413;SDS011;42318;48.452;19.526;2022-10-22T15:40:38;2.28;;;1.85;;
56413;SDS011;42318;48.452;19.526;2022-10-22T15:48:09;2.80;;;1.77;;
56413;SDS011;42318;48.452;19.526;2022-10-22T15:55:41;3.08;;;1.70;;
56413;SDS011;42318;48.452;19.526;2022-10-22T16:03:18;3.28;;;2.15;;
56413;SDS011;42318;48.452;19.526;2022-10-22T16:10:49;2.67;;;1.42;;
56413;SDS011;42318;48.452;19.526;2022-10-22T16:18:19;2.20;;;1.77;;
56413;SDS011;42318;48.452;19.526;2022-10-22T16:25:51;2.67;;;1.90;;
56413;SDS011;42318;48.452;19.526;2022-10-22T16:33:21;2.88;;;1.77;;
56413;SDS011;42318;48.452;19.526;2022-10-22T16:40:52;2.47;;;2.00;;
56413;SDS011;42318;48.452;19.526;2022-10-22T16:48:22;3.03;;;2.22;;
56413;SDS011;42318;48.452;19.526;2022-10-22T16:55:53;2.45;;;2.00;;
56413;SDS011;42318;48.452;19.526;2022-10-22T17:03:24;3.20;;;1.73;;
56413;SDS011;42318;48.452;19.526;2022-10-22T17:10:55;3.35;;;2.53;;
56413;SDS011;42318;48.452;19.526;2022-10-22T17:18:25;6.35;;;2.22;;
56413;SDS011;42318;48.452;19.526;2022-10-22T17:25:57;2.88;;;2.15;;
56413;SDS011;42318;48.452;19.526;2022-10-22T17:33:29;3.75;;;2.13;;
56413;SDS011;42318;48.452;19.526;2022-10-22T17:41:00;3.05;;;2.00;;
56413;SDS011;42318;48.452;19.526;2022-10-22T17:48:31;3.47;;;2.42;;
56413;SDS011;42318;48.452;19.526;2022-10-22T17:56:02;4.03;;;2.42;;
56413;SDS011;42318;48.452;19.526;2022-10-22T18:03:36;3.90;;;2.35;;
56413;SDS011;42318;48.452;19.526;2022-10-22T18:11:11;3.83;;;2.33;;
56413;SDS011;42318;48.452;19.526;2022-10-22T18:18:44;4.00;;;2.55;;
56413;SDS011;42318;48.452;19.526;2022-10-22T18:26:20;4.40;;;2.53;;
56413;SDS011;42318;48.452;19.526;2022-10-22T18:33:51;3.47;;;2.20;;
56413;SDS011;42318;48.452;19.526;2022-10-22T18:41:22;4.00;;;2.60;;
56413;SDS011;42318;48.452;19.526;2022-10-22T18:48:54;4.93;;;2.87;;
56413;SDS011;42318;48.452;19.526;2022-10-22T18:56:26;4.13;;;2.30;;
56413;SDS011;42318;48.452;19.526;2022-10-22T19:03:56;4.35;;;2.58;;
56413;SDS011;42318;48.452;19.526;2022-10-22T19:11:27;5.22;;;2.67;;
56413;SDS011;42318;48.452;19.526;2022-10-22T19:18:59;4.50;;;2.80;;
56413;SDS011;42318;48.452;19.526;2022-10-22T19:26:35;6.18;;;2.65;;
56413;SDS011;42318;48.452;19.526;2022-10-22T19:34:06;3.28;;;2.40;;
56413;SDS011;42318;48.452;19.526;2022-10-22T19:41:37;4.30;;;2.70;;
56413;SDS011;42318;48.452;19.526;2022-10-22T19:49:08;3.80;;;2.70;;
56413;SDS011;42318;48.452;19.526;2022-10-22T19:56:39;4.22;;;2.40;;
56413;SDS011;42318;48.452;19.526;2022-10-22T20:04:12;3.80;;;2.73;;
56413;SDS011;42318;48.452;19.526;2022-10-22T20:11:44;3.40;;;2.30;;
56413;SDS011;42318;48.452;19.526;2022-10-22T20:19:15;3.20;;;2.38;;
56413;SDS011;42318;48.452;19.526;2022-10-22T20:26:46;3.40;;;2.40;;
56413;SDS011;42318;48.452;19.526;2022-10-22T20:34:17;3.92;;;2.33;;
56413;SDS011;42318;48.452;19.526;2022-10-22T20:41:48;4.05;;;2.33;;
56413;SDS011;42318;48.452;19.526;2022-10-22T20:49:20;4.22;;;2.63;;
56413;SDS011;42318;48.452;19.526;2022-10-22T20:56:50;3.75;;;2.50;;
56413;SDS011;42318;48.452;19.526;2022-10-22T21:04:21;4.20;;;2.40;;
56413;SDS011;42318;48.452;19.526;2022-10-22T21:11:52;4.55;;;2.75;;
56413;SDS011;42318;48.452;19.526;2022-10-22T21:19:23;3.83;;;2.40;;
56413;SDS011;42318;48.452;19.526;2022-10-22T21:26:54;2.95;;;2.25;;
56413;SDS011;42318;48.452;19.526;2022-10-22T21:34:24;2.90;;;2.22;;
56413;SDS011;42318;48.452;19.526;2022-10-22T21:41:55;3.67;;;2.28;;
56413;SDS011;42318;48.452;19.526;2022-10-22T21:49:26;3.75;;;2.13;;
56413;SDS011;42318;48.452;19.526;2022-10-22T21:56:56;3.58;;;2.13;;
56413;SDS011;42318;48.452;19.526;2022-10-22T22:04:27;4.55;;;2.58;;
56413;SDS011;42318;48.452;19.526;2022-10-22T22:11:58;3.35;;;2.28;;
56413;SDS011;42318;48.452;19.526;2022-10-22T22:19:28;5.00;;;2.20;;
56413;SDS011;42318;48.452;19.526;2022-10-22T22:26:59;3.58;;;2.72;;
56413;SDS011;42318;48.452;19.526;2022-10-22T22:34:30;3.55;;;2.47;;
56413;SDS011;42318;48.452;19.526;2022-10-22T22:42:00;3.67;;;2.40;;
56413;SDS011;42318;48.452;19.526;2022-10-22T22:49:31;3.67;;;2.30;;
56413;SDS011;42318;48.452;19.526;2022-10-22T22:57:02;3.28;;;2.33;;
56413;SDS011;42318;48.452;19.526;2022-10-22T23:04:33;3.75;;;2.35;;
56413;SDS011;42318;48.452;19.526;2022-10-22T23:12:03;3.90;;;2.50;;
56413;SDS011;42318;48.452;19.526;2022-10-22T23:19:34;3.50;;;2.17;;
56413;SDS011;42318;48.452;19.526;2022-10-22T23:27:05;2.97;;;2.00;;
56413;SDS011;42318;48.452;19.526;2022-10-22T23:34:36;3.70;;;2.00;;
56413;SDS011;42318;48.452;19.526;2022-10-22T23:42:07;3.65;;;2.08;;
56413;SDS011;42318;48.452;19.526;2022-10-22T23:49:37;2.63;;;2.05;;
56413;SDS011;42318;48.452;19.526;2022-10-22T23:57:08;4.55;;;2.70;;
